Time;durP1;ratioP1;P1;durP2;ratioP2;P2;SDS_P1;SDS_P2;PMS_P1;PMS_P2;Temp;Humidity;BMP_temperature;BMP_pressure;BME280_temperature;BME280_humidity;BME280_pressure;Samples;Min_cycle;Max_cycle;Signal;HPM_P1;HPM_P2
2021/07/01 00:01:51;;;;;;;7.80;7.03;;;24.40;86.60;;;;;;5057636;28;20175;-74
2021/07/01 00:04:17;;;;;;;7.88;7.07;;;24.40;87.10;;;;;;5062860;28;20183;-74
2021/07/01 00:06:42;;;;;;;7.60;7.00;;;24.40;87.40;;;;;;5066041;28;20191;-74
2021/07/01 00:09:14;;;;;;;6.72;6.18;;;24.30;87.30;;;;;;5059154;28;20215;-74
2021/07/01 00:11:41;;;;;;;7.60;7.05;;;24.30;87.70;;;;;;5061415;28;20191;-74
2021/07/01 00:14:06;;;;;;;8.68;7.40;;;24.30;87.60;;;;;;5067272;28;20202;-74
2021/07/01 00:16:32;;;;;;;7.68;6.90;;;24.30;87.50;;;;;;5064328;28;20191;-75
2021/07/01 00:18:58;;;;;;;12.30;8.00;;;24.30;87.60;;;;;;5065915;28;20182;-74
2021/07/01 00:21:23;;;;;;;7.05;6.55;;;24.20;87.80;;;;;;5067286;28;20217;-75
2021/07/01 00:23:49;;;;;;;8.23;6.70;;;24.20;87.80;;;;;;5060648;28;20723;-75
2021/07/01 00:26:16;;;;;;;8.40;6.97;;;24.20;88.00;;;;;;5065608;28;20189;-74
2021/07/01 00:28:42;;;;;;;8.00;7.28;;;24.20;87.70;;;;;;5064969;28;20217;-74
2021/07/01 00:31:08;;;;;;;8.07;7.38;;;24.20;88.00;;;;;;5064497;28;20187;-74
2021/07/01 00:33:33;;;;;;;8.93;6.90;;;24.20;88.10;;;;;;5066302;28;20179;-74
2021/07/01 00:35:59;;;;;;;10.48;6.78;;;24.10;88.20;;;;;;5063275;28;20648;-74
2021/07/01 00:38:25;;;;;;;6.63;6.22;;;24.10;88.30;;;;;;5057667;28;20910;-74
2021/07/01 00:40:50;;;;;;;7.18;6.50;;;24.10;88.50;;;;;;5060987;28;20183;-75
2021/07/01 00:43:16;;;;;;;6.53;5.97;;;24.00;88.70;;;;;;5062455;28;20174;-75
2021/07/01 00:45:42;;;;;;;7.50;6.80;;;24.00;88.50;;;;;;5060559;28;20175;-75
2021/07/01 00:48:07;;;;;;;10.38;5.95;;;24.00;88.50;;;;;;5063396;28;20692;-75
2021/07/01 00:50:33;;;;;;;6.80;6.28;;;24.00;88.50;;;;;;5063377;28;20198;-75
2021/07/01 00:52:59;;;;;;;6.15;5.75;;;24.00;88.40;;;;;;5063157;28;21225;-76
2021/07/01 00:55:25;;;;;;;6.20;5.70;;;23.90;88.60;;;;;;5064088;28;20183;-75
2021/07/01 00:57:50;;;;;;;6.40;5.63;;;23.90;88.60;;;;;;5062839;28;20712;-75
2021/07/01 01:03:01;;;;;;;6.68;6.18;;;23.80;88.60;;;;;;5067135;28;20201;-75
2021/07/01 01:05:27;;;;;;;6.85;6.28;;;23.80;88.90;;;;;;5066961;28;20183;-74
2021/07/01 01:07:53;;;;;;;5.93;5.63;;;23.80;88.60;;;;;;5063046;28;20219;-74
2021/07/01 01:10:18;;;;;;;6.55;6.10;;;23.80;88.80;;;;;;5054317;28;20186;-74
2021/07/01 01:12:44;;;;;;;6.18;5.78;;;23.80;88.80;;;;;;5062880;28;20194;-74
2021/07/01 01:15:10;;;;;;;6.75;6.18;;;23.80;89.40;;;;;;5068028;28;20195;-74
2021/07/01 01:17:36;;;;;;;6.75;6.07;;;23.80;89.20;;;;;;5064513;28;20187;-74
2021/07/01 01:20:05;;;;;;;6.88;6.28;;;23.70;89.40;;;;;;5055838;28;20186;-74
2021/07/01 01:22:31;;;;;;;6.50;6.10;;;23.70;89.40;;;;;;5081899;28;20222;-74
2021/07/01 01:24:56;;;;;;;7.70;6.97;;;23.80;89.50;;;;;;5059359;28;20723;-76
2021/07/01 01:27:23;;;;;;;8.20;6.35;;;23.80;89.60;;;;;;5066431;28;20179;-76
2021/07/01 01:29:48;;;;;;;7.63;6.93;;;23.80;89.50;;;;;;5064097;28;20183;-75
2021/07/01 01:32:14;;;;;;;7.85;6.90;;;23.80;89.40;;;;;;5057725;28;20187;-75
2021/07/01 01:34:40;;;;;;;7.57;6.80;;;23.70;89.40;;;;;;5059306;28;20183;-75
2021/07/01 01:37:09;;;;;;;7.25;6.60;;;23.70;89.50;;;;;;5064268;28;20241;-76
2021/07/01 01:39:35;;;;;;;7.38;6.68;;;23.70;89.20;;;;;;5066278;28;20225;-75
2021/07/01 01:42:01;;;;;;;7.63;7.03;;;23.70;89.70;;;;;;5062728;28;20188;-75
2021/07/01 01:44:27;;;;;;;7.78;6.82;;;23.70;89.70;;;;;;5062673;28;20189;-76
2021/07/01 01:46:52;;;;;;;7.03;6.53;;;23.60;89.70;;;;;;5066188;28;20183;-75
2021/07/01 01:49:20;;;;;;;6.85;6.43;;;23.60;89.80;;;;;;5067010;28;20658;-76
2021/07/01 01:51:46;;;;;;;7.85;7.13;;;23.60;90.10;;;;;;5063907;28;20216;-75
2021/07/01 01:54:12;;;;;;;7.90;7.20;;;23.50;90.20;;;;;;5064024;28;20194;-76
2021/07/01 01:56:45;;;;;;;10.48;6.40;;;23.50;90.40;;;;;;5067010;28;20202;-75
2021/07/01 01:59:12;;;;;;;10.10;6.85;;;23.50;90.40;;;;;;5067798;28;20724;-75
2021/07/01 02:01:38;;;;;;;8.40;7.70;;;23.50;90.70;;;;;;5063113;28;20193;-75
2021/07/01 02:04:04;;;;;;;8.07;7.25;;;23.50;90.40;;;;;;5070091;28;20186;-75
2021/07/01 02:06:30;;;;;;;9.25;7.07;;;23.40;90.30;;;;;;5065064;28;20661;-75
2021/07/01 02:08:56;;;;;;;7.95;7.15;;;23.40;90.30;;;;;;5083591;28;20291;-75
2021/07/01 02:11:22;;;;;;;9.35;6.93;;;23.40;90.40;;;;;;5068608;28;20183;-75
2021/07/01 02:13:47;;;;;;;6.47;5.90;;;23.40;90.50;;;;;;5067862;28;20179;-75
2021/07/01 02:16:14;;;;;;;8.18;7.53;;;23.40;90.90;;;;;;5068847;28;20183;-76
2021/07/01 02:18:39;;;;;;;8.20;6.75;;;23.30;90.70;;;;;;5069093;28;20556;-75
2021/07/01 02:21:05;;;;;;;7.53;6.93;;;23.30;90.90;;;;;;5065816;28;20185;-75
2021/07/01 02:23:31;;;;;;;9.82;7.00;;;23.30;90.90;;;;;;5069814;28;20608;-75
2021/07/01 02:25:56;;;;;;;7.88;7.13;;;23.30;90.90;;;;;;5065926;28;20191;-75
2021/07/01 02:28:22;;;;;;;8.52;7.82;;;23.20;90.90;;;;;;5067723;28;20318;-75
2021/07/01 02:30:48;;;;;;;7.75;7.13;;;23.20;91.00;;;;;;5068403;28;20175;-76
2021/07/01 02:33:14;;;;;;;8.27;7.25;;;23.20;91.20;;;;;;5065754;28;20183;-75
2021/07/01 02:35:39;;;;;;;12.90;8.60;;;23.20;91.20;;;;;;5067415;28;20187;-75
2021/07/01 02:38:05;;;;;;;9.52;8.45;;;23.10;91.20;;;;;;5069201;28;20187;-75
2021/07/01 02:40:31;;;;;;;10.23;8.07;;;23.10;91.20;;;;;;5067861;28;20290;-75
2021/07/01 02:42:56;;;;;;;7.97;7.07;;;23.10;91.30;;;;;;5057972;28;20627;-75
2021/07/01 02:45:22;;;;;;;9.15;8.30;;;23.10;91.40;;;;;;5064157;28;20207;-75
2021/07/01 02:47:48;;;;;;;9.13;7.50;;;23.00;91.50;;;;;;5066524;28;20214;-75
2021/07/01 02:50:14;;;;;;;7.90;7.15;;;23.00;91.50;;;;;;5065042;28;20273;-76
2021/07/01 02:52:40;;;;;;;9.27;8.38;;;23.00;91.80;;;;;;5069778;28;20194;-76
2021/07/01 02:55:07;;;;;;;9.13;8.20;;;23.00;91.80;;;;;;5059516;28;20293;-76
2021/07/01 02:57:33;;;;;;;9.45;7.55;;;23.00;91.70;;;;;;5066859;28;20191;-76
2021/07/01 02:59:59;;;;;;;9.63;8.13;;;23.00;91.90;;;;;;5066929;28;20646;-75
2021/07/01 03:02:24;;;;;;;8.38;7.57;;;23.00;91.90;;;;;;5063859;28;21088;-75
2021/07/01 03:04:50;;;;;;;10.35;8.10;;;23.00;91.90;;;;;;5067410;28;20332;-75
2021/07/01 03:07:16;;;;;;;8.13;7.47;;;23.00;91.90;;;;;;5067901;28;20639;-75
2021/07/01 03:09:41;;;;;;;7.90;7.20;;;23.00;92.10;;;;;;5067580;28;20218;-76
2021/07/01 03:12:07;;;;;;;8.77;7.75;;;23.00;92.00;;;;;;5068878;28;20802;-75
2021/07/01 03:14:33;;;;;;;9.23;8.32;;;23.00;92.00;;;;;;5068805;28;20198;-75
2021/07/01 03:16:59;;;;;;;11.10;8.32;;;23.00;91.90;;;;;;5065262;28;20962;-75
2021/07/01 03:19:24;;;;;;;8.75;7.97;;;23.00;92.00;;;;;;5060912;28;20239;-75
2021/07/01 03:21:50;;;;;;;10.43;9.07;;;23.10;92.10;;;;;;5068121;28;20182;-75
2021/07/01 03:24:16;;;;;;;9.20;8.30;;;23.10;92.00;;;;;;5067606;28;20187;-75
2021/07/01 03:26:41;;;;;;;10.32;8.32;;;23.10;92.00;;;;;;5066352;28;20183;-75
2021/07/01 03:29:08;;;;;;;11.57;8.15;;;23.10;91.80;;;;;;5064462;28;20722;-75
2021/07/01 03:31:34;;;;;;;8.63;7.82;;;23.10;92.10;;;;;;5063789;28;20183;-75
2021/07/01 03:34:00;;;;;;;9.50;8.55;;;23.10;91.50;;;;;;5067179;28;20186;-75
2021/07/01 03:36:25;;;;;;;9.40;8.60;;;23.10;91.50;;;;;;5066606;28;20676;-75
2021/07/01 03:38:51;;;;;;;9.48;8.45;;;23.10;91.40;;;;;;5060586;28;20274;-75
2021/07/01 03:41:17;;;;;;;9.70;7.95;;;23.10;91.70;;;;;;5066545;28;20187;-76
2021/07/01 03:43:46;;;;;;;9.27;8.38;;;23.20;91.50;;;;;;5067228;28;20184;-75
2021/07/01 03:46:14;;;;;;;9.18;8.38;;;23.20;91.20;;;;;;5066683;28;20198;-75
2021/07/01 03:48:40;;;;;;;15.05;8.55;;;23.20;91.00;;;;;;5083912;28;21018;-75
2021/07/01 03:51:06;;;;;;;8.77;8.00;;;23.20;91.30;;;;;;5063327;28;20175;-75
2021/07/01 03:53:32;;;;;;;10.32;9.30;;;23.20;91.80;;;;;;5060276;28;20206;-75
2021/07/01 03:55:59;;;;;;;9.68;8.32;;;23.20;91.20;;;;;;5065242;28;20198;-75
2021/07/01 03:58:24;;;;;;;9.75;8.75;;;23.20;91.10;;;;;;5066668;28;20183;-75
2021/07/01 04:00:50;;;;;;;11.38;8.88;;;23.20;91.20;;;;;;5065711;28;20194;-75
2021/07/01 04:03:16;;;;;;;11.35;9.55;;;23.20;91.80;;;;;;5060211;28;20179;-76
2021/07/01 04:05:41;;;;;;;10.85;9.32;;;23.20;91.70;;;;;;5064298;28;20182;-76
2021/07/01 04:08:07;;;;;;;10.15;8.57;;;23.20;92.00;;;;;;5061330;28;20253;-76
2021/07/01 04:10:33;;;;;;;8.85;7.90;;;23.20;91.80;;;;;;5065004;28;20190;-75
2021/07/01 04:12:59;;;;;;;9.18;8.18;;;23.20;91.70;;;;;;5065560;28;20190;-76
2021/07/01 04:15:25;;;;;;;12.00;8.55;;;23.20;91.60;;;;;;5061660;28;20217;-76
2021/07/01 04:17:51;;;;;;;10.05;9.07;;;23.30;91.30;;;;;;5061895;28;20193;-75
2021/07/01 04:20:16;;;;;;;9.77;8.70;;;23.30;91.20;;;;;;5059539;28;20187;-75
2021/07/01 04:22:42;;;;;;;9.10;8.20;;;23.40;91.60;;;;;;5065927;28;20187;-75
2021/07/01 04:25:08;;;;;;;9.27;8.27;;;23.40;91.50;;;;;;5065813;28;20179;-76
2021/07/01 04:27:34;;;;;;;9.48;8.48;;;23.50;91.40;;;;;;5067320;28;20183;-75
2021/07/01 04:30:00;;;;;;;8.48;7.72;;;23.50;91.20;;;;;;5066724;28;20197;-75
2021/07/01 04:32:26;;;;;;;8.63;7.95;;;23.60;91.00;;;;;;5057650;28;20221;-75
2021/07/01 04:34:51;;;;;;;9.95;8.05;;;23.60;91.10;;;;;;5062386;28;20193;-75
2021/07/01 04:37:17;;;;;;;9.60;7.47;;;23.70;91.20;;;;;;5072369;28;20247;-75
2021/07/01 04:39:42;;;;;;;8.32;7.63;;;23.70;90.80;;;;;;5065807;28;20191;-75
2021/07/01 04:42:08;;;;;;;8.35;7.63;;;23.80;90.70;;;;;;5067516;28;20179;-75
2021/07/01 04:44:35;;;;;;;9.18;8.38;;;23.90;90.50;;;;;;5067049;28;20762;-75
2021/07/01 04:47:00;;;;;;;9.18;8.38;;;23.90;90.30;;;;;;5063726;28;20695;-76
2021/07/01 04:49:26;;;;;;;8.43;7.47;;;24.00;90.30;;;;;;5063862;28;20306;-75
2021/07/01 04:51:52;;;;;;;8.52;7.50;;;24.00;90.10;;;;;;5067039;28;20182;-76
2021/07/01 04:54:17;;;;;;;8.98;7.28;;;24.10;89.80;;;;;;5063308;28;20274;-74
2021/07/01 04:56:46;;;;;;;8.35;7.65;;;24.10;89.70;;;;;;5059520;28;20202;-75
2021/07/01 04:59:12;;;;;;;9.10;8.07;;;24.20;89.60;;;;;;5080020;28;20186;-75
2021/07/01 05:01:38;;;;;;;8.48;7.65;;;24.30;89.30;;;;;;5065994;28;20264;-75
2021/07/01 05:04:07;;;;;;;9.18;7.32;;;24.30;89.20;;;;;;5066294;28;20220;-77
2021/07/01 05:06:36;;;;;;;11.07;7.50;;;24.40;88.70;;;;;;5064343;28;20262;-77
2021/07/01 05:09:03;;;;;;;9.15;7.45;;;24.40;88.90;;;;;;5066281;28;20222;-76
2021/07/01 05:11:30;;;;;;;9.25;7.80;;;24.50;88.70;;;;;;5064408;28;20187;-76
2021/07/01 05:13:56;;;;;;;9.65;8.80;;;24.60;88.60;;;;;;5065043;28;20523;-76
2021/07/01 05:16:22;;;;;;;10.35;9.45;;;24.60;88.50;;;;;;5064734;28;20576;-76
2021/07/01 05:18:48;;;;;;;10.20;9.20;;;24.70;88.20;;;;;;5061940;28;20232;-75
2021/07/01 05:21:13;;;;;;;11.02;8.32;;;24.70;87.90;;;;;;5066126;28;20182;-75
2021/07/01 05:23:39;;;;;;;10.00;8.68;;;24.80;87.80;;;;;;5066644;28;20266;-75
2021/07/01 05:26:05;;;;;;;9.55;8.65;;;24.80;87.60;;;;;;5066543;28;20178;-75
2021/07/01 05:28:30;;;;;;;10.32;9.32;;;24.90;87.70;;;;;;5068689;28;20707;-74
2021/07/01 05:30:56;;;;;;;15.77;8.93;;;24.90;87.90;;;;;;5074675;28;20183;-74
2021/07/01 05:33:22;;;;;;;9.05;8.15;;;25.00;87.90;;;;;;5067954;28;20264;-73
2021/07/01 05:35:48;;;;;;;15.80;9.07;;;25.00;87.90;;;;;;5067752;28;20189;-74
2021/07/01 05:38:13;;;;;;;10.90;9.38;;;25.10;88.00;;;;;;5070108;28;20190;-73
2021/07/01 05:40:39;;;;;;;13.85;8.95;;;25.10;88.00;;;;;;5067220;28;20194;-74
2021/07/01 05:43:05;;;;;;;10.05;8.82;;;25.20;88.00;;;;;;5069672;28;20203;-73
2021/07/01 05:45:30;;;;;;;15.68;8.93;;;25.20;87.90;;;;;;5070240;28;20183;-73
2021/07/01 05:47:56;;;;;;;11.63;9.25;;;25.30;87.80;;;;;;5069783;28;20214;-73
2021/07/01 05:50:22;;;;;;;13.68;8.88;;;25.30;87.40;;;;;;5069435;28;20259;-73
2021/07/01 05:52:51;;;;;;;9.32;8.43;;;25.40;87.20;;;;;;5067292;28;20182;-73
2021/07/01 05:55:17;;;;;;;9.32;8.10;;;25.50;87.10;;;;;;5063770;28;20199;-73
2021/07/01 05:57:42;;;;;;;13.20;9.30;;;25.50;86.90;;;;;;5065315;28;20191;-74
2021/07/01 06:00:11;;;;;;;9.55;8.43;;;25.60;86.90;;;;;;5067018;28;20179;-72
2021/07/01 06:02:37;;;;;;;12.07;9.23;;;25.70;86.50;;;;;;5066825;28;20190;-72
2021/07/01 06:05:04;;;;;;;16.73;8.65;;;25.70;86.50;;;;;;5063496;28;20551;-72
2021/07/01 06:07:30;;;;;;;9.32;8.43;;;25.80;86.30;;;;;;5064938;28;20698;-74
2021/07/01 06:10:00;;;;;;;9.63;8.05;;;25.80;86.20;;;;;;5061461;28;20180;-75
2021/07/01 06:12:29;;;;;;;9.07;8.13;;;25.90;85.90;;;;;;5077895;28;20233;-74
2021/07/01 06:14:57;;;;;;;10.68;8.60;;;26.00;85.70;;;;;;5069335;28;20223;-73
2021/07/01 06:17:26;;;;;;;9.20;7.80;;;26.00;85.50;;;;;;5067057;28;20888;-74
2021/07/01 06:19:52;;;;;;;9.50;8.45;;;26.10;85.30;;;;;;5068576;28;20174;-75
2021/07/01 06:22:21;;;;;;;11.88;8.88;;;26.10;85.30;;;;;;5069433;28;20198;-74
2021/07/01 06:24:53;;;;;;;8.98;8.15;;;26.20;84.90;;;;;;5085015;28;20214;-74
2021/07/01 06:27:22;;;;;;;9.95;8.98;;;26.30;85.00;;;;;;5064687;28;20183;-74
2021/07/01 06:29:48;;;;;;;14.95;9.05;;;26.30;85.00;;;;;;5077568;28;20759;-74
2021/07/01 06:32:14;;;;;;;10.05;9.20;;;26.40;85.00;;;;;;5066461;28;20273;-75
2021/07/01 06:34:41;;;;;;;15.68;10.60;;;26.50;85.00;;;;;;5063990;28;20266;-75
2021/07/01 06:37:08;;;;;;;10.80;9.48;;;26.50;84.80;;;;;;5068281;28;20591;-73
2021/07/01 06:39:37;;;;;;;14.85;10.43;;;26.60;84.90;;;;;;5068189;28;20191;-74
2021/07/01 06:42:03;;;;;;;15.75;10.70;;;26.60;84.40;;;;;;5067885;28;20215;-74
2021/07/01 06:44:30;;;;;;;14.77;11.05;;;26.70;84.70;;;;;;5068849;28;20179;-74
2021/07/01 06:46:56;;;;;;;14.00;10.60;;;26.70;84.40;;;;;;5067166;28;20214;-75
2021/07/01 06:49:24;;;;;;;17.30;11.10;;;26.70;84.80;;;;;;5068910;28;20235;-75
2021/07/01 06:51:53;;;;;;;11.70;10.48;;;26.80;84.70;;;;;;5082566;28;20179;-75
2021/07/01 06:54:19;;;;;;;14.93;10.98;;;26.80;84.80;;;;;;5069585;28;20189;-76
2021/07/01 06:56:45;;;;;;;19.58;11.23;;;26.90;85.00;;;;;;5068647;28;20179;-75
2021/07/01 06:59:12;;;;;;;10.82;9.68;;;26.90;84.40;;;;;;5068098;28;20210;-75
2021/07/01 07:01:38;;;;;;;19.83;10.68;;;26.90;84.10;;;;;;5065277;28;20210;-75
2021/07/01 07:04:04;;;;;;;15.35;10.82;;;27.00;83.70;;;;;;5068491;28;20210;-74
2021/07/01 07:06:29;;;;;;;16.00;10.70;;;27.00;83.20;;;;;;5068377;28;20548;-74
2021/07/01 07:08:57;;;;;;;10.88;9.93;;;27.10;83.80;;;;;;5065546;28;20310;-75
2021/07/01 07:11:23;;;;;;;11.85;10.68;;;27.20;84.20;;;;;;5062182;28;20228;-74
2021/07/01 07:13:49;;;;;;;14.52;10.38;;;27.20;83.00;;;;;;5063493;28;20182;-75
2021/07/01 07:16:17;;;;;;;10.05;9.25;;;27.20;82.90;;;;;;5064562;28;20209;-75
2021/07/01 07:18:44;;;;;;;12.65;10.35;;;27.30;83.00;;;;;;5063967;28;20210;-75
2021/07/01 07:21:17;;;;;;;13.70;10.30;;;27.30;82.60;;;;;;5064894;28;20222;-74
2021/07/01 07:23:46;;;;;;;11.52;9.70;;;27.40;81.50;;;;;;5062798;28;20214;-74
2021/07/01 07:26:16;;;;;;;13.23;9.77;;;27.40;81.50;;;;;;5063394;28;20182;-74
2021/07/01 07:28:43;;;;;;;16.15;9.27;;;27.50;81.40;;;;;;5066249;28;20206;-73
2021/07/01 07:31:17;;;;;;;12.20;10.10;;;27.50;81.00;;;;;;5067346;28;20187;-72
2021/07/01 07:33:44;;;;;;;14.23;9.52;;;27.60;80.80;;;;;;5067934;28;20182;-72
2021/07/01 07:36:10;;;;;;;10.18;9.02;;;27.70;80.90;;;;;;5067964;28;20186;-73
2021/07/01 07:38:36;;;;;;;15.55;9.23;;;27.70;80.50;;;;;;5064744;28;20220;-73
2021/07/01 07:41:02;;;;;;;12.98;9.30;;;27.80;80.40;;;;;;5067607;28;20663;-74
2021/07/01 07:43:28;;;;;;;11.95;9.80;;;27.90;79.70;;;;;;5082539;28;20187;-74
2021/07/01 07:45:55;;;;;;;11.05;8.85;;;27.90;79.70;;;;;;5067424;28;20683;-73
2021/07/01 07:48:21;;;;;;;16.42;8.73;;;28.00;79.70;;;;;;5067546;28;20213;-73
2021/07/01 07:50:54;;;;;;;10.05;9.00;;;28.10;79.50;;;;;;5068921;28;20261;-73
2021/07/01 07:53:35;;;;;;;8.90;8.05;;;28.20;79.80;;;;;;5067546;28;20183;-73
2021/07/01 07:56:11;;;;;;;15.05;8.40;;;28.20;79.30;;;;;;5067993;28;20434;-73
2021/07/01 07:58:41;;;;;;;10.30;8.32;;;28.30;78.80;;;;;;5065328;28;20262;-73
2021/07/01 08:01:09;;;;;;;11.38;9.20;;;28.30;77.50;;;;;;5067304;28;20619;-73
2021/07/01 08:03:38;;;;;;;12.32;8.15;;;28.40;78.40;;;;;;5066022;28;20283;-74
2021/07/01 08:06:05;;;;;;;13.13;7.45;;;28.50;78.10;;;;;;5066776;28;20572;-74
2021/07/01 08:08:33;;;;;;;9.02;8.10;;;28.50;77.30;;;;;;5067168;28;20243;-74
2021/07/01 08:11:00;;;;;;;11.23;7.43;;;28.60;77.90;;;;;;5066621;28;20248;-75
2021/07/01 08:13:29;;;;;;;10.68;8.35;;;28.60;77.60;;;;;;5064080;28;20290;-74
2021/07/01 08:15:56;;;;;;;9.65;8.02;;;28.70;77.70;;;;;;5082106;28;20683;-74
2021/07/01 08:18:38;;;;;;;8.40;7.60;;;28.80;76.80;;;;;;5066538;28;20206;-74
2021/07/01 08:21:04;;;;;;;12.23;7.55;;;28.90;77.30;;;;;;5073201;28;20210;-76
2021/07/01 08:23:32;;;;;;;11.30;7.32;;;29.00;76.00;;;;;;5066758;28;20197;-75
2021/07/01 08:25:59;;;;;;;11.60;7.35;;;29.10;76.10;;;;;;5065098;28;20171;-76
2021/07/01 08:28:25;;;;;;;9.05;6.78;;;29.20;75.40;;;;;;5064073;28;20766;-75
2021/07/01 08:30:51;;;;;;;12.88;7.50;;;29.20;75.40;;;;;;5064909;28;20219;-74
2021/07/01 08:33:19;;;;;;;8.00;6.93;;;29.30;74.90;;;;;;5062446;28;20179;-75
2021/07/01 08:35:54;;;;;;;11.23;7.65;;;29.40;73.80;;;;;;5066471;28;20171;-76
2021/07/01 08:38:20;;;;;;;12.27;6.80;;;29.50;74.10;;;;;;5063744;28;20194;-74
2021/07/01 08:40:48;;;;;;;9.80;7.07;;;29.60;73.50;;;;;;5065867;28;20179;-75
2021/07/01 08:43:18;;;;;;;15.73;7.43;;;29.70;73.50;;;;;;5064536;28;20560;-75
2021/07/01 08:46:14;;;;;;;11.98;6.63;;;29.70;72.80;;;;;;5081148;28;20187;-75
2021/07/01 08:49:03;;;;;;;9.18;5.65;;;29.80;71.80;;;;;;5064162;28;20845;-75
2021/07/01 08:51:36;;;;;;;11.48;5.95;;;29.90;70.80;;;;;;5064345;28;20181;-76
2021/07/01 08:54:25;;;;;;;9.85;5.57;;;30.00;71.30;;;;;;5065806;28;20544;-75
2021/07/01 08:56:53;;;;;;;9.73;4.88;;;30.10;70.00;;;;;;5062498;28;20187;-75
2021/07/01 08:59:21;;;;;;;12.23;4.35;;;30.20;66.70;;;;;;5065902;28;20194;-75
2021/07/01 09:02:01;;;;;;;4.63;3.65;;;30.10;67.00;;;;;;5065602;28;20373;-75
2021/07/01 09:04:34;;;;;;;11.80;4.80;;;30.20;67.50;;;;;;5081585;28;20185;-74
2021/07/01 09:07:04;;;;;;;6.30;3.63;;;30.30;67.80;;;;;;5085500;28;20255;-74
2021/07/01 09:09:35;;;;;;;3.92;3.47;;;30.40;66.60;;;;;;5067910;28;20209;-74
2021/07/01 09:12:05;;;;;;;9.27;3.67;;;30.50;64.70;;;;;;5069097;28;20186;-77
2021/07/01 09:14:32;;;;;;;8.07;4.63;;;30.60;66.20;;;;;;5067987;28;20628;-75
2021/07/01 09:17:01;;;;;;;4.43;3.97;;;30.70;66.00;;;;;;5067920;28;20879;-75
2021/07/01 09:19:27;;;;;;;8.80;4.97;;;30.80;66.00;;;;;;5059367;28;20656;-74
2021/07/01 09:21:53;;;;;;;5.57;4.32;;;30.90;64.20;;;;;;5069249;28;20660;-75
2021/07/01 09:24:19;;;;;;;8.88;4.55;;;31.00;64.80;;;;;;5063803;28;20182;-75
2021/07/01 09:26:49;;;;;;;8.68;5.18;;;31.20;64.20;;;;;;5067498;28;20181;-74
2021/07/01 09:29:16;;;;;;;9.98;4.85;;;31.20;61.40;;;;;;5062733;28;20210;-74
2021/07/01 09:31:43;;;;;;;9.70;5.28;;;31.20;62.00;;;;;;5068710;28;20224;-75
2021/07/01 09:34:09;;;;;;;5.55;3.88;;;31.20;60.70;;;;;;5069824;28;20183;-75
2021/07/01 09:36:36;;;;;;;9.80;4.85;;;31.20;62.60;;;;;;5067241;28;20182;-75
2021/07/01 09:39:03;;;;;;;10.13;4.60;;;31.30;63.40;;;;;;5070466;28;20197;-75
2021/07/01 09:41:30;;;;;;;6.07;4.40;;;31.40;62.10;;;;;;5069081;28;20537;-75
2021/07/01 09:43:58;;;;;;;11.52;5.15;;;31.60;63.10;;;;;;5065187;28;20191;-75
2021/07/01 09:46:28;;;;;;;8.35;4.43;;;31.70;62.60;;;;;;5069538;28;20277;-75
2021/07/01 09:48:58;;;;;;;5.80;4.28;;;31.90;62.40;;;;;;5068787;28;20687;-75
2021/07/01 09:51:26;;;;;;;14.85;4.80;;;32.00;61.80;;;;;;5067294;28;20200;-75
2021/07/01 09:53:53;;;;;;;15.00;4.57;;;32.10;59.00;;;;;;5068194;28;20255;-75
2021/07/01 09:56:23;;;;;;;10.10;4.93;;;32.20;60.50;;;;;;5064726;28;20175;-75
2021/07/01 09:58:50;;;;;;;7.68;4.10;;;32.20;59.60;;;;;;5068104;28;20174;-75
2021/07/01 10:01:27;;;;;;;14.88;5.15;;;32.30;61.00;;;;;;5073378;28;20315;-76
2021/07/01 10:04:00;;;;;;;6.20;4.55;;;32.40;61.20;;;;;;5051661;28;20186;-75
2021/07/01 10:06:26;;;;;;;13.35;4.50;;;32.40;61.70;;;;;;5065951;28;20189;-75
2021/07/01 10:08:53;;;;;;;11.15;5.05;;;32.60;60.60;;;;;;5068264;28;20342;-75
2021/07/01 10:11:43;;;;;;;5.10;4.00;;;32.70;59.80;;;;;;5066274;28;20182;-75
2021/07/01 10:14:12;;;;;;;9.90;4.35;;;32.90;58.60;;;;;;5064861;28;20631;-75
2021/07/01 10:16:38;;;;;;;18.02;4.88;;;33.00;58.00;;;;;;5066951;28;20174;-75
2021/07/01 10:19:08;;;;;;;11.35;4.72;;;33.20;58.90;;;;;;5055198;28;20194;-74
2021/07/01 10:21:38;;;;;;;14.30;5.00;;;33.40;59.90;;;;;;5052456;28;20646;-74
2021/07/01 10:24:12;;;;;;;6.13;3.97;;;33.70;59.70;;;;;;5056588;28;20273;-72
2021/07/01 10:26:47;;;;;;;6.03;4.15;;;33.90;57.80;;;;;;5068146;28;20174;-75
2021/07/01 10:29:14;;;;;;;14.10;4.63;;;34.10;56.70;;;;;;5060897;28;20229;-73
2021/07/01 10:31:59;;;;;;;15.55;4.55;;;34.40;57.80;;;;;;5064520;28;20184;-74
2021/07/01 10:34:28;;;;;;;9.85;4.43;;;34.70;55.00;;;;;;5066065;28;20265;-73
2021/07/01 10:37:26;;;;;;;9.80;4.45;;;35.00;56.70;;;;;;5064399;28;20193;-73
2021/07/01 10:39:53;;;;;;;18.13;5.13;;;35.50;55.20;;;;;;5061627;28;20190;-73
2021/07/01 10:42:20;;;;;;;16.20;4.65;;;35.90;54.90;;;;;;5067522;28;20223;-73
2021/07/01 10:44:46;;;;;;;13.02;4.95;;;36.10;53.80;;;;;;5063103;28;20182;-76
2021/07/01 10:47:29;;;;;;;9.80;4.60;;;36.30;53.00;;;;;;5059551;28;20376;-76
2021/07/01 10:49:56;;;;;;;19.55;5.00;;;36.40;51.10;;;;;;5066556;28;20285;-73
2021/07/01 10:52:34;;;;;;;11.75;4.90;;;36.60;51.80;;;;;;5066148;28;20243;-73
2021/07/01 10:55:00;;;;;;;15.18;4.95;;;37.20;50.70;;;;;;5060941;28;20190;-73
2021/07/01 10:57:29;;;;;;;16.45;4.85;;;37.40;51.40;;;;;;5065487;28;20186;-73
2021/07/01 10:59:57;;;;;;;10.48;5.00;;;37.60;52.20;;;;;;5059227;28;20591;-73
2021/07/01 11:02:33;;;;;;;8.85;4.88;;;37.70;52.90;;;;;;5060517;28;20694;-72
2021/07/01 11:05:01;;;;;;;9.90;4.82;;;37.90;49.90;;;;;;5059656;28;20186;-74
2021/07/01 11:07:28;;;;;;;8.18;4.57;;;38.20;50.80;;;;;;5067269;28;20185;-73
2021/07/01 11:09:56;;;;;;;9.10;4.45;;;38.80;49.80;;;;;;5065262;28;20722;-73
2021/07/01 11:12:25;;;;;;;12.55;5.38;;;39.60;49.20;;;;;;5056339;28;20189;-73
2021/07/01 11:14:56;;;;;;;8.35;5.00;;;40.40;48.50;;;;;;5064030;28;20230;-73
2021/07/01 11:17:29;;;;;;;13.82;4.72;;;41.20;48.50;;;;;;5060762;28;20240;-73
2021/07/01 11:19:55;;;;;;;14.02;5.57;;;41.80;47.80;;;;;;5077490;28;20214;-73
2021/07/01 11:22:21;;;;;;;8.20;5.45;;;42.10;49.30;;;;;;5066419;28;20676;-73
2021/07/01 11:24:47;;;;;;;16.90;5.25;;;42.20;49.40;;;;;;5063362;28;20218;-73
2021/07/01 11:27:22;;;;;;;14.90;5.53;;;41.80;48.80;;;;;;5065041;28;20185;-73
2021/07/01 11:29:47;;;;;;;8.73;5.43;;;41.50;49.40;;;;;;5066481;28;20263;-73
2021/07/01 11:32:16;;;;;;;8.75;5.13;;;41.30;51.10;;;;;;5051693;28;20191;-73
2021/07/01 11:34:43;;;;;;;16.13;5.45;;;41.40;48.30;;;;;;5047816;28;20179;-71
2021/07/01 11:37:10;;;;;;;13.80;5.47;;;41.50;47.60;;;;;;5060017;28;20205;-72
2021/07/01 11:39:36;;;;;;;8.85;5.45;;;41.40;49.10;;;;;;5047339;28;20244;-72
2021/07/01 11:42:05;;;;;;;15.23;4.85;;;40.90;49.00;;;;;;5064711;28;20750;-72
2021/07/01 11:44:32;;;;;;;10.65;4.18;;;40.20;49.40;;;;;;5062117;28;20575;-72
2021/07/01 11:46:59;;;;;;;13.73;4.00;;;39.90;49.90;;;;;;5058902;28;20217;-71
2021/07/01 11:49:28;;;;;;;6.65;4.25;;;39.90;49.50;;;;;;5065025;28;20267;-73
2021/07/01 11:51:54;;;;;;;10.73;4.82;;;40.00;50.40;;;;;;5063767;28;20186;-73
2021/07/01 11:54:20;;;;;;;14.18;4.20;;;40.10;48.60;;;;;;5067855;28;20295;-72
2021/07/01 11:59:30;;;;;;;8.40;4.57;;;40.70;49.60;;;;;;5064970;28;20190;-73
2021/07/01 12:01:58;;;;;;;14.20;4.18;;;40.70;48.30;;;;;;5064213;28;20182;-73
2021/07/01 12:04:32;;;;;;;6.35;3.63;;;40.60;48.90;;;;;;5063261;28;20178;-73
2021/07/01 12:06:58;;;;;;;16.73;4.90;;;40.60;49.10;;;;;;5068894;28;20240;-73
2021/07/01 12:09:24;;;;;;;9.23;4.95;;;40.40;50.00;;;;;;5066301;28;20214;-73
2021/07/01 12:12:04;;;;;;;12.95;4.90;;;40.00;50.30;;;;;;5061948;28;20190;-73
2021/07/01 12:14:31;;;;;;;11.45;5.10;;;39.70;48.70;;;;;;5065423;28;20205;-74
2021/07/01 12:16:57;;;;;;;10.65;5.13;;;39.70;48.10;;;;;;5063626;28;20190;-73
2021/07/01 12:19:45;;;;;;;12.73;4.85;;;39.60;49.00;;;;;;5065955;28;20580;-73
2021/07/01 12:22:49;;;;;;;12.23;4.57;;;39.80;48.40;;;;;;5062643;28;20321;-73
2021/07/01 12:25:19;;;;;;;9.75;4.53;;;39.90;48.10;;;;;;5048064;28;20293;-74
2021/07/01 12:27:45;;;;;;;15.25;4.90;;;40.40;48.00;;;;;;5062561;28;20660;-74
2021/07/01 12:30:11;;;;;;;12.35;4.68;;;40.30;48.20;;;;;;5065679;28;20538;-74
2021/07/01 12:32:37;;;;;;;11.98;4.80;;;40.20;49.90;;;;;;5066271;28;20220;-74
2021/07/01 12:35:39;;;;;;;16.75;5.82;;;39.90;49.80;;;;;;5065873;28;20674;-73
2021/07/01 12:38:09;;;;;;;16.02;4.40;;;39.90;49.00;;;;;;5059651;28;20182;-73
2021/07/01 12:40:35;;;;;;;14.65;5.18;;;40.50;49.30;;;;;;5064210;28;20193;-73
2021/07/01 12:43:01;;;;;;;7.95;4.30;;;40.90;48.10;;;;;;5065498;28;20182;-73
2021/07/01 12:45:32;;;;;;;9.20;4.28;;;40.90;48.30;;;;;;5064318;28;20254;-74
2021/07/01 12:47:58;;;;;;;14.38;4.57;;;41.50;48.20;;;;;;5062798;28;20270;-73
2021/07/01 12:50:31;;;;;;;11.73;4.03;;;42.20;47.60;;;;;;5059669;28;20197;-73